Time;durP1;ratioP1;P1;durP2;ratioP2;P2;SDS_P1;SDS_P2;PMS_P1;PMS_P2;Temp;Humidity;BMP_temperature;BMP_pressure;BME280_temperature;BME280_humidity;BME280_pressure;Samples;Min_cycle;Max_cycle;Signal;HPM_P1;HPM_P2
2022/10/01 00:00:00;;;;;;;0.7;0.7;;;;;;;11.6;100.0;100140;;;;
2022/10/01 00:01:00;;;;;;;0.7;0.7;;;;;;;11.6;100.0;100140;;;;
2022/10/01 00:02:00;;;;;;;0.7;0.7;;;;;;;11.7;100.0;100120;;;;
2022/10/01 00:03:00;;;;;;;0.7;0.7;;;;;;;11.7;100.0;100120;;;;
2022/10/01 00:04:00;;;;;;;0.7;0.7;;;;;;;11.6;100.0;100110;;;;
2022/10/01 00:05:00;;;;;;;0.7;0.7;;;;;;;11.6;100.0;100110;;;;
2022/10/01 00:06:01;;;;;;;0.7;0.7;;;;;;;11.7;100.0;100090;;;;
2022/10/01 00:07:03;;;;;;;0.7;0.7;;;;;;;11.7;100.0;100090;;;;
2022/10/01 00:08:00;;;;;;;0.7;0.7;;;;;;;11.6;100.0;100100;;;;
2022/10/01 00:09:00;;;;;;;0.7;0.7;;;;;;;11.6;100.0;100100;;;;
2022/10/01 00:10:00;;;;;;;0.7;0.7;;;;;;;11.6;100.0;100080;;;;
2022/10/01 00:11:00;;;;;;;0.6;0.6;;;;;;;11.6;100.0;100080;;;;
2022/10/01 00:12:00;;;;;;;0.6;0.6;;;;;;;11.6;100.0;100090;;;;
2022/10/01 00:13:00;;;;;;;0.6;0.6;;;;;;;11.6;100.0;100090;;;;
2022/10/01 00:14:00;;;;;;;0.6;0.6;;;;;;;11.5;100.0;100080;;;;
2022/10/01 00:15:08;;;;;;;0.6;0.6;;;;;;;11.5;100.0;100080;;;;
2022/10/01 00:16:02;;;;;;;0.6;0.6;;;;;;;11.6;100.0;100080;;;;
2022/10/01 00:17:00;;;;;;;0.6;0.6;;;;;;;11.6;100.0;100080;;;;
2022/10/01 00:18:00;;;;;;;0.6;0.6;;;;;;;11.5;100.0;100070;;;;
2022/10/01 00:19:00;;;;;;;0.6;0.6;;;;;;;11.5;100.0;100070;;;;
2022/10/01 00:20:01;;;;;;;0.6;0.6;;;;;;;11.5;100.0;100060;;;;
2022/10/01 00:21:03;;;;;;;0.6;0.6;;;;;;;11.5;100.0;100060;;;;
2022/10/01 00:22:00;;;;;;;0.6;0.6;;;;;;;11.6;100.0;100070;;;;
2022/10/01 00:23:00;;;;;;;0.6;0.6;;;;;;;11.6;100.0;100070;;;;
2022/10/01 00:24:03;;;;;;;0.6;0.6;;;;;;;11.6;100.0;100070;;;;
2022/10/01 00:25:00;;;;;;;0.6;0.6;;;;;;;11.6;100.0;100070;;;;
2022/10/01 00:26:10;;;;;;;0.6;0.6;;;;;;;11.7;100.0;100070;;;;
2022/10/01 00:27:00;;;;;;;0.6;0.6;;;;;;;11.7;100.0;100070;;;;
2022/10/01 00:28:00;;;;;;;0.6;0.6;;;;;;;11.7;100.0;100050;;;;
2022/10/01 00:29:01;;;;;;;0.6;0.6;;;;;;;11.7;100.0;100050;;;;
2022/10/01 00:30:02;;;;;;;0.6;0.6;;;;;;;11.8;100.0;100060;;;;
2022/10/01 00:31:00;;;;;;;0.7;0.7;;;;;;;11.8;100.0;100060;;;;
2022/10/01 00:32:00;;;;;;;0.7;0.7;;;;;;;11.7;100.0;100060;;;;
2022/10/01 00:33:00;;;;;;;0.7;0.7;;;;;;;11.7;100.0;100060;;;;
2022/10/01 00:34:02;;;;;;;0.7;0.7;;;;;;;11.6;100.0;100040;;;;
2022/10/01 00:35:02;;;;;;;0.7;0.7;;;;;;;11.6;100.0;100040;;;;
2022/10/01 00:36:00;;;;;;;0.7;0.7;;;;;;;11.5;100.0;100050;;;;
2022/10/01 00:37:00;;;;;;;0.7;0.7;;;;;;;11.5;100.0;100050;;;;
2022/10/01 00:38:00;;;;;;;0.7;0.7;;;;;;;11.4;100.0;100050;;;;
2022/10/01 00:39:00;;;;;;;0.7;0.7;;;;;;;11.4;100.0;100050;;;;
2022/10/01 00:40:00;;;;;;;0.7;0.7;;;;;;;11.4;100.0;100040;;;;
2022/10/01 00:41:00;;;;;;;0.7;0.7;;;;;;;11.4;100.0;100040;;;;
2022/10/01 00:42:00;;;;;;;0.7;0.7;;;;;;;11.5;100.0;100040;;;;
2022/10/01 00:43:00;;;;;;;0.7;0.7;;;;;;;11.5;100.0;100040;;;;
2022/10/01 00:44:01;;;;;;;0.7;0.7;;;;;;;11.5;100.0;100030;;;;
2022/10/01 00:45:01;;;;;;;0.7;0.7;;;;;;;11.5;100.0;100030;;;;
2022/10/01 00:46:03;;;;;;;0.7;0.7;;;;;;;11.6;100.0;100020;;;;
2022/10/01 00:47:03;;;;;;;0.7;0.7;;;;;;;11.6;100.0;100020;;;;
2022/10/01 00:48:00;;;;;;;0.7;0.7;;;;;;;11.5;100.0;100030;;;;
2022/10/01 00:49:00;;;;;;;0.7;0.7;;;;;;;11.5;100.0;100030;;;;
2022/10/01 00:50:05;;;;;;;0.7;0.7;;;;;;;11.4;100.0;100040;;;;
2022/10/01 00:51:00;;;;;;;0.7;0.7;;;;;;;11.4;100.0;100040;;;;
2022/10/01 00:52:02;;;;;;;0.7;0.7;;;;;;;11.4;100.0;100040;;;;
2022/10/01 00:53:01;;;;;;;0.7;0.7;;;;;;;11.4;100.0;100040;;;;
2022/10/01 00:54:03;;;;;;;0.7;0.7;;;;;;;11.4;100.0;100040;;;;
2022/10/01 00:55:03;;;;;;;0.7;0.7;;;;;;;11.4;100.0;100040;;;;
2022/10/01 00:56:00;;;;;;;0.7;0.7;;;;;;;11.4;100.0;100030;;;;
2022/10/01 00:57:01;;;;;;;0.7;0.7;;;;;;;11.4;100.0;100030;;;;
2022/10/01 00:58:00;;;;;;;0.7;0.7;;;;;;;11.6;100.0;100040;;;;
2022/10/01 00:59:00;;;;;;;0.7;0.7;;;;;;;11.6;100.0;100040;;;;
2022/10/01 01:00:01;;;;;;;0.7;0.7;;;;;;;11.5;100.0;100030;;;;
2022/10/01 01:01:00;;;;;;;0.7;0.7;;;;;;;11.5;100.0;100030;;;;
2022/10/01 01:02:00;;;;;;;0.7;0.7;;;;;;;11.6;100.0;100020;;;;
2022/10/01 01:03:00;;;;;;;0.7;0.7;;;;;;;11.6;100.0;100020;;;;
2022/10/01 01:04:00;;;;;;;0.7;0.7;;;;;;;11.6;100.0;100020;;;;
2022/10/01 01:05:00;;;;;;;0.7;0.7;;;;;;;11.6;100.0;100020;;;;
2022/10/01 01:06:00;;;;;;;0.7;0.7;;;;;;;11.6;100.0;100020;;;;
2022/10/01 01:07:01;;;;;;;0.7;0.7;;;;;;;11.6;100.0;100020;;;;
2022/10/01 01:08:01;;;;;;;0.7;0.7;;;;;;;11.4;100.0;100010;;;;
2022/10/01 01:09:02;;;;;;;0.7;0.7;;;;;;;11.4;100.0;100010;;;;
2022/10/01 01:10:01;;;;;;;0.7;0.7;;;;;;;11.4;100.0;100020;;;;
2022/10/01 01:11:01;;;;;;;0.6;0.6;;;;;;;11.4;100.0;100020;;;;
2022/10/01 01:12:10;;;;;;;0.6;0.6;;;;;;;11.4;100.0;100010;;;;
2022/10/01 01:13:10;;;;;;;0.6;0.6;;;;;;;11.4;100.0;100030;;;;
2022/10/01 01:14:09;;;;;;;0.6;0.6;;;;;;;11.4;100.0;100030;;;;
2022/10/01 01:15:01;;;;;;;0.6;0.6;;;;;;;11.4;100.0;100030;;;;
2022/10/01 01:16:05;;;;;;;0.6;0.6;;;;;;;11.3;100.0;100000;;;;
2022/10/01 01:17:07;;;;;;;0.6;0.6;;;;;;;11.3;100.0;100000;;;;
2022/10/01 01:18:01;;;;;;;0.6;0.6;;;;;;;11.4;100.0;100000;;;;
2022/10/01 01:19:03;;;;;;;0.6;0.6;;;;;;;11.4;100.0;100000;;;;
2022/10/01 01:20:10;;;;;;;0.6;0.6;;;;;;;11.4;100.0;100000;;;;
2022/10/01 01:21:10;;;;;;;0.6;0.6;;;;;;;11.3;100.0;99980;;;;
2022/10/01 01:22:02;;;;;;;0.6;0.6;;;;;;;11.3;100.0;99980;;;;
2022/10/01 01:23:00;;;;;;;0.6;0.6;;;;;;;11.3;100.0;99980;;;;
2022/10/01 01:24:00;;;;;;;0.6;0.6;;;;;;;11.4;100.0;99980;;;;
2022/10/01 01:25:07;;;;;;;0.6;0.6;;;;;;;11.3;100.0;99980;;;;
2022/10/01 01:26:04;;;;;;;0.6;0.6;;;;;;;11.3;100.0;99980;;;;
2022/10/01 01:27:07;;;;;;;0.6;0.6;;;;;;;11.3;100.0;99930;;;;
2022/10/01 01:28:10;;;;;;;0.6;0.6;;;;;;;11.3;100.0;99930;;;;
2022/10/01 01:29:03;;;;;;;0.6;0.6;;;;;;;11.3;100.0;99930;;;;
2022/10/01 01:30:03;;;;;;;0.6;0.6;;;;;;;11.2;100.0;99890;;;;
2022/10/01 01:31:04;;;;;;;0.7;0.7;;;;;;;11.2;100.0;99890;;;;
2022/10/01 01:32:07;;;;;;;0.7;0.7;;;;;;;11.1;100.0;99890;;;;
2022/10/01 01:33:03;;;;;;;0.7;0.7;;;;;;;11.1;100.0;99890;;;;
2022/10/01 01:34:04;;;;;;;0.7;0.7;;;;;;;11.2;100.0;99890;;;;
2022/10/01 01:35:02;;;;;;;0.7;0.7;;;;;;;11.2;100.0;99890;;;;
2022/10/01 01:36:04;;;;;;;0.7;0.7;;;;;;;11.1;100.0;99900;;;;
2022/10/01 01:37:03;;;;;;;0.7;0.7;;;;;;;11.1;100.0;99900;;;;
2022/10/01 01:38:02;;;;;;;0.7;0.7;;;;;;;11.2;100.0;99920;;;;
2022/10/01 01:39:03;;;;;;;0.7;0.7;;;;;;;11.2;100.0;99920;;;;
2022/10/01 01:40:02;;;;;;;0.7;0.7;;;;;;;11.4;100.0;99920;;;;
2022/10/01 01:41:01;;;;;;;0.7;0.7;;;;;;;11.4;100.0;99920;;;;
2022/10/01 01:42:04;;;;;;;0.7;0.7;;;;;;;11.3;100.0;99930;;;;
2022/10/01 01:43:04;;;;;;;0.7;0.7;;;;;;;11.3;100.0;99930;;;;
2022/10/01 01:44:01;;;;;;;0.7;0.7;;;;;;;11.2;100.0;99940;;;;
2022/10/01 01:45:02;;;;;;;0.7;0.7;;;;;;;11.2;100.0;99940;;;;
2022/10/01 01:46:02;;;;;;;0.7;0.7;;;;;;;11.3;100.0;99940;;;;
2022/10/01 01:47:01;;;;;;;0.7;0.7;;;;;;;11.3;100.0;99940;;;;
2022/10/01 01:48:02;;;;;;;0.7;0.7;;;;;;;11.2;100.0;99930;;;;
2022/10/01 01:49:02;;;;;;;0.7;0.7;;;;;;;11.2;100.0;99930;;;;
2022/10/01 01:50:01;;;;;;;0.7;0.7;;;;;;;11.2;100.0;99920;;;;
2022/10/01 01:51:07;;;;;;;0.6;0.6;;;;;;;11.2;100.0;99920;;;;
2022/10/01 01:52:12;;;;;;;0.6;0.6;;;;;;;11.2;100.0;99920;;;;
2022/10/01 01:53:01;;;;;;;0.6;0.6;;;;;;;11.2;100.0;99920;;;;
2022/10/01 01:54:00;;;;;;;0.6;0.6;;;;;;;11.3;100.0;99920;;;;
2022/10/01 01:55:04;;;;;;;0.6;0.6;;;;;;;11.3;100.0;99920;;;;
2022/10/01 01:56:00;;;;;;;0.6;0.6;;;;;;;11.2;100.0;99930;;;;
2022/10/01 01:57:01;;;;;;;0.6;0.6;;;;;;;11.2;100.0;99930;;;;
2022/10/01 01:58:00;;;;;;;0.6;0.6;;;;;;;11.1;100.0;99930;;;;
2022/10/01 01:59:00;;;;;;;0.6;0.6;;;;;;;11.1;100.0;99930;;;;
2022/10/01 02:00:00;;;;;;;0.6;0.6;;;;;;;11.1;100.0;99910;;;;
2022/10/01 02:01:01;;;;;;;0.6;0.6;;;;;;;11.1;100.0;99910;;;;
2022/10/01 02:02:00;;;;;;;0.6;0.6;;;;;;;11.2;100.0;99900;;;;
2022/10/01 02:03:00;;;;;;;0.6;0.6;;;;;;;11.2;100.0;99900;;;;
2022/10/01 02:04:03;;;;;;;0.6;0.6;;;;;;;11.3;100.0;99900;;;;
2022/10/01 02:05:03;;;;;;;0.6;0.6;;;;;;;11.3;100.0;99900;;;;
2022/10/01 02:06:07;;;;;;;0.6;0.6;;;;;;;11.3;100.0;99910;;;;
2022/10/01 02:07:09;;;;;;;0.6;0.6;;;;;;;11.2;100.0;99900;;;;
2022/10/01 02:08:01;;;;;;;0.6;0.6;;;;;;;11.2;100.0;99900;;;;
2022/10/01 02:09:07;;;;;;;0.6;0.6;;;;;;;11.2;100.0;99900;;;;
2022/10/01 02:10:06;;;;;;;0.6;0.6;;;;;;;11.2;100.0;99900;;;;
2022/10/01 02:11:04;;;;;;;0.6;0.6;;;;;;;11.2;100.0;99900;;;;
2022/10/01 02:12:10;;;;;;;0.6;0.6;;;;;;;11.2;100.0;99890;;;;
2022/10/01 02:13:10;;;;;;;0.6;0.6;;;;;;;11.2;100.0;99880;;;;
2022/10/01 02:14:10;;;;;;;0.6;0.6;;;;;;;11.2;100.0;99880;;;;
2022/10/01 02:15:07;;;;;;;0.6;0.6;;;;;;;11.2;100.0;99880;;;;
2022/10/01 02:16:07;;;;;;;0.6;0.6;;;;;;;11.3;100.0;99890;;;;
2022/10/01 02:17:07;;;;;;;0.6;0.6;;;;;;;11.2;100.0;99880;;;;
2022/10/01 02:18:10;;;;;;;0.6;0.6;;;;;;;11.2;100.0;99880;;;;
2022/10/01 02:19:04;;;;;;;0.6;0.6;;;;;;;11.2;100.0;99880;;;;
2022/10/01 02:20:05;;;;;;;0.6;0.6;;;;;;;11.2;100.0;99890;;;;
2022/10/01 02:21:09;;;;;;;0.6;0.6;;;;;;;11.2;100.0;99890;;;;
2022/10/01 02:22:08;;;;;;;0.6;0.6;;;;;;;11.2;100.0;99890;;;;
2022/10/01 02:23:04;;;;;;;0.6;0.6;;;;;;;11.2;100.0;99890;;;;
2022/10/01 02:24:01;;;;;;;0.6;0.6;;;;;;;11.1;100.0;99870;;;;
2022/10/01 02:25:02;;;;;;;0.6;0.6;;;;;;;11.1;100.0;99870;;;;
2022/10/01 02:26:03;;;;;;;0.6;0.6;;;;;;;11.1;100.0;99890;;;;
2022/10/01 02:27:02;;;;;;;0.6;0.6;;;;;;;11.1;100.0;99890;;;;
2022/10/01 02:28:04;;;;;;;0.6;0.6;;;;;;;11.0;100.0;99870;;;;
2022/10/01 02:29:02;;;;;;;0.6;0.6;;;;;;;11.0;100.0;99870;;;;
2022/10/01 02:30:02;;;;;;;0.6;0.6;;;;;;;11.0;100.0;99870;;;;
2022/10/01 02:31:01;;;;;;;0.6;0.6;;;;;;;11.0;100.0;99870;;;;
2022/10/01 02:32:01;;;;;;;0.6;0.6;;;;;;;11.1;100.0;99870;;;;
2022/10/01 02:33:03;;;;;;;0.6;0.6;;;;;;;11.1;100.0;99870;;;;
2022/10/01 02:34:01;;;;;;;0.6;0.6;;;;;;;11.2;100.0;99870;;;;
2022/10/01 02:35:01;;;;;;;0.6;0.6;;;;;;;11.2;100.0;99870;;;;
2022/10/01 02:36:01;;;;;;;0.6;0.6;;;;;;;11.1;100.0;99850;;;;
2022/10/01 02:37:02;;;;;;;0.6;0.6;;;;;;;11.1;100.0;99850;;;;
2022/10/01 02:38:03;;;;;;;0.6;0.6;;;;;;;11.1;100.0;99850;;;;
2022/10/01 02:39:01;;;;;;;0.6;0.6;;;;;;;11.1;100.0;99850;;;;
2022/10/01 02:40:01;;;;;;;0.6;0.6;;;;;;;11.2;100.0;99850;;;;
2022/10/01 02:41:01;;;;;;;0.6;0.6;;;;;;;11.2;100.0;99850;;;;
2022/10/01 02:42:01;;;;;;;0.6;0.6;;;;;;;11.2;100.0;99850;;;;
2022/10/01 02:43:05;;;;;;;0.6;0.6;;;;;;;11.2;100.0;99850;;;;
2022/10/01 02:44:03;;;;;;;0.6;0.6;;;;;;;11.2;100.0;99840;;;;
2022/10/01 02:45:02;;;;;;;0.6;0.6;;;;;;;11.2;100.0;99840;;;;
2022/10/01 02:46:03;;;;;;;0.6;0.6;;;;;;;11.2;100.0;99840;;;;
2022/10/01 02:47:06;;;;;;;0.6;0.6;;;;;;;11.2;100.0;99840;;;;
2022/10/01 02:48:02;;;;;;;0.6;0.6;;;;;;;11.1;100.0;99830;;;;
2022/10/01 02:49:01;;;;;;;0.6;0.6;;;;;;;11.1;100.0;99830;;;;
2022/10/01 02:50:01;;;;;;;0.8;0.8;;;;;;;11.2;100.0;99830;;;;
2022/10/01 02:51:08;;;;;;;0.8;0.8;;;;;;;11.2;100.0;99840;;;;
2022/10/01 02:52:10;;;;;;;0.8;0.8;;;;;;;11.2;100.0;99840;;;;
2022/10/01 02:53:05;;;;;;;0.8;0.8;;;;;;;11.2;100.0;99840;;;;
2022/10/01 02:54:02;;;;;;;0.8;0.8;;;;;;;11.2;100.0;99840;;;;
2022/10/01 02:55:06;;;;;;;0.8;0.8;;;;;;;11.2;100.0;99840;;;;
2022/10/01 02:56:01;;;;;;;0.8;0.8;;;;;;;11.1;100.0;99830;;;;
2022/10/01 02:58:00;;;;;;;0.8;0.8;;;;;;;11.1;100.0;99830;;;;
2022/10/01 02:59:00;;;;;;;0.8;0.8;;;;;;;11.1;100.0;99830;;;;
2022/10/01 03:00:02;;;;;;;0.8;0.8;;;;;;;11.1;100.0;99850;;;;
2022/10/01 03:01:00;;;;;;;0.8;0.8;;;;;;;11.1;100.0;99850;;;;
2022/10/01 03:02:00;;;;;;;0.8;0.8;;;;;;;11.1;100.0;99830;;;;
2022/10/01 03:03:00;;;;;;;0.8;0.8;;;;;;;11.1;100.0;99830;;;;
2022/10/01 03:04:01;;;;;;;0.8;0.8;;;;;;;11.2;100.0;99830;;;;
2022/10/01 03:05:00;;;;;;;0.8;0.8;;;;;;;11.2;100.0;99830;;;;
2022/10/01 03:07:02;;;;;;;0.8;0.8;;;;;;;11.2;100.0;99830;;;;
2022/10/01 03:08:00;;;;;;;0.8;0.8;;;;;;;11.2;100.0;99840;;;;
2022/10/01 03:09:00;;;;;;;0.8;0.8;;;;;;;11.2;100.0;99840;;;;
2022/10/01 03:10:00;;;;;;;0.7;0.7;;;;;;;11.3;100.0;99840;;;;
2022/10/01 03:11:00;;;;;;;0.7;0.7;;;;;;;11.3;100.0;99840;;;;
2022/10/01 03:12:00;;;;;;;0.7;0.7;;;;;;;11.3;100.0;99840;;;;
2022/10/01 03:13:00;;;;;;;0.7;0.7;;;;;;;11.3;100.0;99840;;;;
2022/10/01 03:14:00;;;;;;;0.7;0.7;;;;;;;11.2;100.0;99840;;;;
2022/10/01 03:15:01;;;;;;;0.7;0.7;;;;;;;11.2;100.0;99840;;;;
2022/10/01 03:16:00;;;;;;;0.7;0.7;;;;;;;11.3;100.0;99860;;;;
2022/10/01 03:17:00;;;;;;;0.7;0.7;;;;;;;11.3;100.0;99860;;;;
2022/10/01 03:18:00;;;;;;;0.7;0.7;;;;;;;11.3;100.0;99840;;;;
2022/10/01 03:19:00;;;;;;;0.7;0.7;;;;;;;11.3;100.0;99840;;;;
2022/10/01 03:20:00;;;;;;;0.7;0.7;;;;;;;11.4;100.0;99830;;;;
2022/10/01 03:21:00;;;;;;;0.7;0.7;;;;;;;11.4;100.0;99830;;;;
2022/10/01 03:22:00;;;;;;;0.7;0.7;;;;;;;11.4;100.0;99830;;;;
2022/10/01 03:23:00;;;;;;;0.7;0.7;;;;;;;11.4;100.0;99830;;;;
2022/10/01 03:24:00;;;;;;;0.7;0.7;;;;;;;11.3;100.0;99830;;;;
2022/10/01 03:25:00;;;;;;;0.7;0.7;;;;;;;11.3;100.0;99830;;;;
2022/10/01 03:26:00;;;;;;;0.7;0.7;;;;;;;11.4;100.0;99840;;;;
2022/10/01 03:27:00;;;;;;;0.7;0.7;;;;;;;11.4;100.0;99840;;;;
2022/10/01 03:28:00;;;;;;;0.7;0.7;;;;;;;11.3;100.0;99840;;;;
2022/10/01 03:29:00;;;;;;;0.7;0.7;;;;;;;11.3;100.0;99840;;;;
2022/10/01 03:30:00;;;;;;;0.6;0.6;;;;;;;11.4;100.0;99830;;;;
2022/10/01 03:31:08;;;;;;;0.6;0.6;;;;;;;11.5;100.0;99810;;;;
2022/10/01 03:32:00;;;;;;;0.6;0.6;;;;;;;11.5;100.0;99810;;;;
2022/10/01 03:33:00;;;;;;;0.6;0.6;;;;;;;11.5;100.0;99810;;;;
2022/10/01 03:34:00;;;;;;;0.6;0.6;;;;;;;11.5;100.0;99830;;;;
2022/10/01 03:35:00;;;;;;;0.6;0.6;;;;;;;11.5;100.0;99830;;;;
2022/10/01 03:36:00;;;;;;;0.6;0.6;;;;;;;11.4;100.0;99830;;;;
2022/10/01 03:37:00;;;;;;;0.6;0.6;;;;;;;11.4;100.0;99830;;;;
2022/10/01 03:38:01;;;;;;;0.6;0.6;;;;;;;11.4;100.0;99840;;;;
2022/10/01 03:39:00;;;;;;;0.6;0.6;;;;;;;11.4;100.0;99840;;;;
2022/10/01 03:40:00;;;;;;;0.6;0.6;;;;;;;11.5;100.0;99830;;;;
2022/10/01 03:41:00;;;;;;;0.6;0.6;;;;;;;11.5;100.0;99830;;;;
2022/10/01 03:42:00;;;;;;;0.6;0.6;;;;;;;11.5;100.0;99820;;;;
2022/10/01 03:43:00;;;;;;;0.6;0.6;;;;;;;11.5;100.0;99820;;;;
2022/10/01 03:44:00;;;;;;;0.6;0.6;;;;;;;11.4;100.0;99820;;;;
2022/10/01 03:45:00;;;;;;;0.6;0.6;;;;;;;11.4;100.0;99820;;;;
2022/10/01 03:46:00;;;;;;;0.6;0.6;;;;;;;11.4;100.0;99820;;;;
2022/10/01 03:47:00;;;;;;;0.6;0.6;;;;;;;11.4;100.0;99820;;;;
2022/10/01 03:48:00;;;;;;;0.6;0.6;;;;;;;11.5;100.0;99830;;;;
2022/10/01 03:49:00;;;;;;;0.6;0.6;;;;;;;11.5;100.0;99830;;;;
2022/10/01 03:50:00;;;;;;;0.6;0.6;;;;;;;11.5;100.0;99830;;;;
2022/10/01 03:51:00;;;;;;;0.6;0.6;;;;;;;11.5;100.0;99830;;;;
2022/10/01 03:52:01;;;;;;;0.6;0.6;;;;;;;11.5;100.0;99830;;;;
2022/10/01 03:53:00;;;;;;;0.6;0.6;;;;;;;11.5;100.0;99830;;;;
2022/10/01 03:54:00;;;;;;;0.6;0.6;;;;;;;11.6;100.0;99830;;;;
2022/10/01 03:55:00;;;;;;;0.6;0.6;;;;;;;11.6;100.0;99830;;;;
2022/10/01 03:56:00;;;;;;;0.6;0.6;;;;;;;11.6;100.0;99830;;;;
2022/10/01 03:57:00;;;;;;;0.6;0.6;;;;;;;11.6;100.0;99830;;;;
2022/10/01 03:58:01;;;;;;;0.6;0.6;;;;;;;11.6;100.0;99830;;;;
2022/10/01 03:59:00;;;;;;;0.6;0.6;;;;;;;11.6;100.0;99830;;;;
2022/10/01 04:00:00;;;;;;;0.6;0.6;;;;;;;11.6;100.0;99830;;;;
2022/10/01 04:01:00;;;;;;;0.6;0.6;;;;;;;11.6;100.0;99830;;;;
2022/10/01 04:02:00;;;;;;;0.6;0.6;;;;;;;11.7;100.0;99830;;;;
2022/10/01 04:03:00;;;;;;;0.6;0.6;;;;;;;11.7;100.0;99830;;;;
2022/10/01 04:04:00;;;;;;;0.6;0.6;;;;;;;11.6;100.0;99830;;;;
2022/10/01 04:05:00;;;;;;;0.6;0.6;;;;;;;11.6;100.0;99830;;;;
2022/10/01 04:06:00;;;;;;;0.6;0.6;;;;;;;11.7;100.0;99830;;;;
2022/10/01 04:07:00;;;;;;;0.6;0.6;;;;;;;11.7;100.0;99830;;;;
2022/10/01 04:08:00;;;;;;;0.6;0.6;;;;;;;11.7;100.0;99830;;;;
2022/10/01 04:09:00;;;;;;;0.6;0.6;;;;;;;11.7;100.0;99830;;;;
2022/10/01 04:10:00;;;;;;;0.7;0.7;;;;;;;11.6;100.0;99830;;;;
2022/10/01 04:11:00;;;;;;;0.7;0.7;;;;;;;11.6;100.0;99830;;;;
2022/10/01 04:12:00;;;;;;;0.7;0.7;;;;;;;11.6;100.0;99840;;;;
2022/10/01 04:13:00;;;;;;;0.7;0.7;;;;;;;11.6;100.0;99840;;;;
2022/10/01 04:14:00;;;;;;;0.7;0.7;;;;;;;11.8;100.0;99840;;;;
2022/10/01 04:15:00;;;;;;;0.7;0.7;;;;;;;11.8;100.0;99840;;;;
2022/10/01 04:16:00;;;;;;;0.7;0.7;;;;;;;11.8;100.0;99840;;;;
2022/10/01 04:17:00;;;;;;;0.7;0.7;;;;;;;11.8;100.0;99840;;;;
2022/10/01 04:18:04;;;;;;;0.7;0.7;;;;;;;11.7;100.0;99840;;;;
2022/10/01 04:19:00;;;;;;;0.7;0.7;;;;;;;11.7;100.0;99840;;;;
2022/10/01 04:21:00;;;;;;;0.7;0.7;;;;;;;11.7;100.0;99830;;;;
2022/10/01 04:22:00;;;;;;;0.7;0.7;;;;;;;11.8;100.0;99840;;;;
2022/10/01 04:23:00;;;;;;;0.7;0.7;;;;;;;11.8;100.0;99840;;;;
2022/10/01 04:24:01;;;;;;;0.7;0.7;;;;;;;11.8;100.0;99830;;;;
2022/10/01 04:25:01;;;;;;;0.7;0.7;;;;;;;11.8;100.0;99830;;;;
2022/10/01 04:26:01;;;;;;;0.7;0.7;;;;;;;11.8;100.0;99840;;;;
2022/10/01 04:27:00;;;;;;;0.7;0.7;;;;;;;11.8;100.0;99840;;;;
2022/10/01 04:28:01;;;;;;;0.7;0.7;;;;;;;11.9;100.0;99840;;;;
2022/10/01 04:29:00;;;;;;;0.7;0.7;;;;;;;11.9;100.0;99840;;;;
2022/10/01 04:30:00;;;;;;;0.7;0.7;;;;;;;12.0;100.0;99840;;;;
2022/10/01 04:32:02;;;;;;;0.7;0.7;;;;;;;11.7;100.0;99840;;;;
2022/10/01 04:33:00;;;;;;;0.7;0.7;;;;;;;11.7;100.0;99840;;;;
2022/10/01 04:34:00;;;;;;;0.7;0.7;;;;;;;11.8;100.0;99840;;;;
2022/10/01 04:35:03;;;;;;;0.7;0.7;;;;;;;11.8;100.0;99840;;;;
2022/10/01 04:36:00;;;;;;;0.7;0.7;;;;;;;11.8;100.0;99840;;;;
2022/10/01 04:37:00;;;;;;;0.7;0.7;;;;;;;11.8;100.0;99840;;;;
2022/10/01 04:38:02;;;;;;;0.7;0.7;;;;;;;11.9;100.0;99840;;;;
2022/10/01 04:39:03;;;;;;;0.7;0.7;;;;;;;11.9;100.0;99840;;;;
2022/10/01 04:40:00;;;;;;;0.7;0.7;;;;;;;11.9;100.0;99850;;;;
2022/10/01 04:41:00;;;;;;;0.7;0.7;;;;;;;11.9;100.0;99850;;;;
2022/10/01 04:42:01;;;;;;;0.7;0.7;;;;;;;11.9;100.0;99850;;;;
2022/10/01 04:43:00;;;;;;;0.7;0.7;;;;;;;11.9;100.0;99850;;;;
2022/10/01 04:44:00;;;;;;;0.7;0.7;;;;;;;12.0;100.0;99850;;;;
2022/10/01 04:45:00;;;;;;;0.7;0.7;;;;;;;12.0;100.0;99850;;;;
2022/10/01 04:46:00;;;;;;;0.7;0.7;;;;;;;12.0;100.0;99860;;;;
2022/10/01 04:47:00;;;;;;;0.7;0.7;;;;;;;12.0;100.0;99860;;;;
2022/10/01 04:48:00;;;;;;;0.7;0.7;;;;;;;12.0;100.0;99850;;;;
2022/10/01 04:49:00;;;;;;;0.7;0.7;;;;;;;12.0;100.0;99850;;;;
2022/10/01 04:50:00;;;;;;;0.6;0.6;;;;;;;12.0;100.0;99860;;;;
2022/10/01 04:51:00;;;;;;;0.6;0.6;;;;;;;12.0;100.0;99860;;;;
2022/10/01 04:52:00;;;;;;;0.6;0.6;;;;;;;12.0;100.0;99860;;;;
2022/10/01 04:53:00;;;;;;;0.6;0.6;;;;;;;12.0;100.0;99860;;;;
2022/10/01 04:54:00;;;;;;;0.6;0.6;;;;;;;12.1;100.0;99860;;;;
2022/10/01 04:55:00;;;;;;;0.6;0.6;;;;;;;12.1;100.0;99860;;;;
2022/10/01 04:56:00;;;;;;;0.6;0.6;;;;;;;12.1;100.0;99870;;;;
2022/10/01 04:57:00;;;;;;;0.6;0.6;;;;;;;12.1;100.0;99870;;;;
2022/10/01 04:58:00;;;;;;;0.6;0.6;;;;;;;12.1;100.0;99870;;;;
2022/10/01 04:59:00;;;;;;;0.6;0.6;;;;;;;12.1;100.0;99870;;;;
2022/10/01 05:00:00;;;;;;;0.6;0.6;;;;;;;12.1;100.0;99870;;;;
2022/10/01 05:01:02;;;;;;;0.6;0.6;;;;;;;12.1;100.0;99870;;;;
2022/10/01 05:02:00;;;;;;;0.6;0.6;;;;;;;12.1;100.0;99880;;;;
2022/10/01 05:03:00;;;;;;;0.6;0.6;;;;;;;12.1;100.0;99880;;;;
2022/10/01 05:04:00;;;;;;;0.6;0.6;;;;;;;12.0;100.0;99880;;;;
2022/10/01 05:05:02;;;;;;;0.6;0.6;;;;;;;12.0;100.0;99880;;;;
2022/10/01 05:06:00;;;;;;;0.6;0.6;;;;;;;12.0;100.0;99880;;;;
2022/10/01 05:07:00;;;;;;;0.6;0.6;;;;;;;12.0;100.0;99880;;;;
2022/10/01 05:08:00;;;;;;;0.6;0.6;;;;;;;12.1;100.0;99880;;;;
2022/10/01 05:09:00;;;;;;;0.6;0.6;;;;;;;12.1;100.0;99880;;;;
2022/10/01 05:10:00;;;;;;;0.6;0.6;;;;;;;12.1;100.0;99880;;;;
2022/10/01 05:11:00;;;;;;;0.6;0.6;;;;;;;12.1;100.0;99880;;;;
2022/10/01 05:12:00;;;;;;;0.6;0.6;;;;;;;12.1;100.0;99880;;;;
2022/10/01 05:13:01;;;;;;;0.6;0.6;;;;;;;12.1;100.0;99880;;;;
2022/10/01 05:14:00;;;;;;;0.6;0.6;;;;;;;12.2;100.0;99880;;;;
2022/10/01 05:15:01;;;;;;;0.6;0.6;;;;;;;12.2;100.0;99880;;;;
2022/10/01 05:16:01;;;;;;;0.6;0.6;;;;;;;12.1;100.0;99880;;;;
2022/10/01 05:17:00;;;;;;;0.6;0.6;;;;;;;12.1;100.0;99880;;;;
2022/10/01 05:18:00;;;;;;;0.6;0.6;;;;;;;12.2;100.0;99890;;;;
2022/10/01 05:19:00;;;;;;;0.6;0.6;;;;;;;12.2;100.0;99890;;;;
2022/10/01 05:20:01;;;;;;;0.6;0.6;;;;;;;12.2;100.0;99900;;;;
2022/10/01 05:21:04;;;;;;;0.6;0.6;;;;;;;12.2;100.0;99900;;;;
2022/10/01 05:22:00;;;;;;;0.6;0.6;;;;;;;12.2;100.0;99890;;;;
2022/10/01 05:23:00;;;;;;;0.6;0.6;;;;;;;12.2;100.0;99890;;;;
2022/10/01 05:24:00;;;;;;;0.6;0.6;;;;;;;12.3;100.0;99900;;;;
2022/10/01 05:25:01;;;;;;;0.6;0.6;;;;;;;12.3;100.0;99900;;;;
2022/10/01 05:26:00;;;;;;;0.6;0.6;;;;;;;12.4;100.0;99900;;;;
2022/10/01 05:27:00;;;;;;;0.6;0.6;;;;;;;12.4;100.0;99900;;;;
2022/10/01 05:28:04;;;;;;;0.6;0.6;;;;;;;12.3;100.0;99900;;;;
2022/10/01 05:29:00;;;;;;;0.6;0.6;;;;;;;12.3;100.0;99900;;;;
2022/10/01 05:30:00;;;;;;;0.6;0.6;;;;;;;12.3;100.0;99900;;;;
2022/10/01 05:31:01;;;;;;;0.6;0.6;;;;;;;12.3;100.0;99900;;;;
2022/10/01 05:32:00;;;;;;;0.6;0.6;;;;;;;12.4;100.0;99900;;;;
2022/10/01 05:33:01;;;;;;;0.6;0.6;;;;;;;12.4;100.0;99900;;;;
2022/10/01 05:34:00;;;;;;;0.6;0.6;;;;;;;12.4;100.0;99910;;;;
2022/10/01 05:35:00;;;;;;;0.6;0.6;;;;;;;12.4;100.0;99910;;;;
2022/10/01 05:36:00;;;;;;;0.6;0.6;;;;;;;12.4;100.0;99910;;;;
2022/10/01 05:37:01;;;;;;;0.6;0.6;;;;;;;12.4;100.0;99910;;;;
2022/10/01 05:38:01;;;;;;;0.6;0.6;;;;;;;12.4;100.0;99910;;;;
2022/10/01 05:39:00;;;;;;;0.6;0.6;;;;;;;12.4;100.0;99910;;;;
2022/10/01 05:40:00;;;;;;;0.6;0.6;;;;;;;12.4;100.0;99910;;;;
2022/10/01 05:41:00;;;;;;;0.6;0.6;;;;;;;12.4;100.0;99910;;;;
2022/10/01 05:42:06;;;;;;;0.6;0.6;;;;;;;12.4;100.0;99920;;;;
2022/10/01 05:43:01;;;;;;;0.6;0.6;;;;;;;12.4;100.0;99920;;;;
2022/10/01 05:44:01;;;;;;;0.6;0.6;;;;;;;12.4;100.0;99920;;;;
2022/10/01 05:45:00;;;;;;;0.6;0.6;;;;;;;12.4;100.0;99920;;;;
2022/10/01 05:46:01;;;;;;;0.6;0.6;;;;;;;12.5;100.0;99920;;;;
2022/10/01 05:47:01;;;;;;;0.6;0.6;;;;;;;12.5;100.0;99920;;;;
2022/10/01 05:48:01;;;;;;;0.6;0.6;;;;;;;12.4;100.0;99930;;;;
2022/10/01 05:49:00;;;;;;;0.6;0.6;;;;;;;12.4;100.0;99930;;;;
2022/10/01 05:50:00;;;;;;;0.5;0.5;;;;;;;12.4;100.0;99930;;;;
2022/10/01 05:51:01;;;;;;;0.5;0.5;;;;;;;12.4;100.0;99930;;;;
2022/10/01 05:52:00;;;;;;;0.5;0.5;;;;;;;12.5;100.0;99940;;;;
2022/10/01 05:53:00;;;;;;;0.5;0.5;;;;;;;12.5;100.0;99940;;;;
2022/10/01 05:54:03;;;;;;;0.5;0.5;;;;;;;12.4;100.0;99930;;;;
2022/10/01 05:55:00;;;;;;;0.5;0.5;;;;;;;12.4;100.0;99930;;;;
2022/10/01 05:56:01;;;;;;;0.5;0.5;;;;;;;12.5;100.0;99940;;;;
2022/10/01 05:57:00;;;;;;;0.5;0.5;;;;;;;12.5;100.0;99940;;;;
2022/10/01 05:58:01;;;;;;;0.5;0.5;;;;;;;12.5;100.0;99950;;;;
2022/10/01 05:59:00;;;;;;;0.5;0.5;;;;;;;12.5;100.0;99950;;;;
2022/10/01 06:00:00;;;;;;;0.5;0.5;;;;;;;12.5;100.0;99940;;;;
2022/10/01 06:01:00;;;;;;;0.5;0.5;;;;;;;12.5;100.0;99940;;;;
2022/10/01 06:02:00;;;;;;;0.5;0.5;;;;;;;12.6;100.0;99950;;;;
2022/10/01 06:03:01;;;;;;;0.5;0.5;;;;;;;12.6;100.0;99950;;;;
2022/10/01 06:04:00;;;;;;;0.5;0.5;;;;;;;12.6;100.0;99950;;;;
2022/10/01 06:05:00;;;;;;;0.5;0.5;;;;;;;12.6;100.0;99950;;;;
2022/10/01 06:06:00;;;;;;;0.5;0.5;;;;;;;12.6;100.0;99950;;;;
2022/10/01 06:07:00;;;;;;;0.5;0.5;;;;;;;12.6;100.0;99950;;;;
2022/10/01 06:08:00;;;;;;;0.5;0.5;;;;;;;12.6;100.0;99950;;;;
2022/10/01 06:09:00;;;;;;;0.5;0.5;;;;;;;12.6;100.0;99950;;;;
2022/10/01 06:10:00;;;;;;;0.6;0.6;;;;;;;12.7;100.0;99950;;;;
2022/10/01 06:11:01;;;;;;;0.6;0.6;;;;;;;12.7;100.0;99950;;;;
2022/10/01 06:12:00;;;;;;;0.6;0.6;;;;;;;12.7;100.0;99950;;;;
2022/10/01 06:13:00;;;;;;;0.6;0.6;;;;;;;12.7;100.0;99950;;;;
2022/10/01 06:14:00;;;;;;;0.6;0.6;;;;;;;12.7;100.0;99950;;;;
2022/10/01 06:15:00;;;;;;;0.6;0.6;;;;;;;12.7;100.0;99950;;;;
2022/10/01 06:16:00;;;;;;;0.6;0.6;;;;;;;12.7;100.0;99960;;;;
2022/10/01 06:17:00;;;;;;;0.6;0.6;;;;;;;12.7;100.0;99960;;;;
2022/10/01 06:18:00;;;;;;;0.6;0.6;;;;;;;12.7;100.0;99960;;;;
2022/10/01 06:19:00;;;;;;;0.6;0.6;;;;;;;12.7;100.0;99960;;;;
2022/10/01 06:20:00;;;;;;;0.6;0.6;;;;;;;12.8;100.0;99960;;;;
2022/10/01 06:21:00;;;;;;;0.6;0.6;;;;;;;12.8;100.0;99960;;;;
2022/10/01 06:22:00;;;;;;;0.6;0.6;;;;;;;12.8;100.0;99970;;;;
2022/10/01 06:23:00;;;;;;;0.6;0.6;;;;;;;12.8;100.0;99970;;;;
2022/10/01 06:24:00;;;;;;;0.6;0.6;;;;;;;12.8;100.0;99970;;;;
2022/10/01 06:25:00;;;;;;;0.6;0.6;;;;;;;12.8;100.0;99970;;;;
2022/10/01 06:26:00;;;;;;;0.6;0.6;;;;;;;12.8;100.0;99970;;;;
2022/10/01 06:27:00;;;;;;;0.6;0.6;;;;;;;12.8;100.0;99970;;;;
2022/10/01 06:28:00;;;;;;;0.6;0.6;;;;;;;12.8;100.0;99970;;;;
2022/10/01 06:29:01;;;;;;;0.6;0.6;;;;;;;12.8;100.0;99970;;;;
2022/10/01 06:30:00;;;;;;;0.5;0.5;;;;;;;12.9;100.0;99970;;;;
2022/10/01 06:31:01;;;;;;;0.5;0.5;;;;;;;12.9;100.0;99970;;;;